Time;durP1;ratioP1;P1;durP2;ratioP2;P2;SDS_P1;SDS_P2;PMS_P1;PMS_P2;Temp;Humidity;BMP_temperature;BMP_pressure;BME280_temperature;BME280_humidity;BME280_pressure;Samples;Min_cycle;Max_cycle;Signal;HPM_P1;HPM_P2
2022/11/22 00:01:14;;;;;;;2.22;1.48;;;;;;;;;;5108549;28;20031;-41
2022/11/22 00:03:40;;;;;;;2.38;1.52;;;;;;;;;;5110681;27;20107;-41
2022/11/22 00:06:06;;;;;;;2.42;1.45;;;;;;;;;;5095664;28;20549;-41
2022/11/22 00:08:32;;;;;;;2.13;1.38;;;;;;;;;;5071946;28;20047;-41
2022/11/22 00:10:58;;;;;;;2.25;1.27;;;;;;;;;;5089162;28;20071;-41
2022/11/22 00:13:24;;;;;;;2.10;1.40;;;;;;;;;;5089339;28;20073;-41
2022/11/22 00:16:00;;;;;;;2.25;1.20;;;;;;;;;;5088820;28;20035;-41
2022/11/22 00:18:27;;;;;;;1.75;1.33;;;;;;;;;;5089472;28;20024;-41
2022/11/22 00:20:53;;;;;;;1.48;0.93;;;;;;;;;;5089343;28;20887;-41
2022/11/22 00:23:19;;;;;;;1.83;1.10;;;;;;;;;;5089318;28;20103;-41
2022/11/22 00:25:45;;;;;;;1.73;1.20;;;;;;;;;;5089015;28;20110;-41
2022/11/22 00:28:11;;;;;;;1.17;1.00;;;;;;;;;;5089264;28;20103;-42
2022/11/22 00:30:37;;;;;;;1.65;1.02;;;;;;;;;;5088789;28;20440;-41
2022/11/22 00:33:03;;;;;;;1.33;0.95;;;;;;;;;;5089791;28;20021;-41
2022/11/22 00:35:29;;;;;;;1.58;1.00;;;;;;;;;;5089080;28;20069;-41
2022/11/22 00:37:55;;;;;;;1.52;0.90;;;;;;;;;;5088880;28;20024;-41
2022/11/22 00:40:21;;;;;;;0.95;0.80;;;;;;;;;;5107468;28;20034;-42
2022/11/22 00:42:47;;;;;;;0.73;0.70;;;;;;;;;;5108857;28;20024;-41
2022/11/22 00:45:13;;;;;;;1.55;0.73;;;;;;;;;;5109158;28;20088;-41
2022/11/22 00:47:39;;;;;;;1.63;0.70;;;;;;;;;;5091140;28;20021;-41
2022/11/22 00:50:05;;;;;;;1.42;1.10;;;;;;;;;;5109725;28;20050;-41
2022/11/22 00:52:31;;;;;;;2.08;1.52;;;;;;;;;;5109736;28;20061;-42
2022/11/22 00:54:57;;;;;;;3.10;1.77;;;;;;;;;;5108857;28;20035;-42
2022/11/22 00:57:23;;;;;;;3.50;2.00;;;;;;;;;;5109268;28;20019;-41
2022/11/22 00:59:49;;;;;;;4.10;2.03;;;;;;;;;;5108824;28;20039;-41
2022/11/22 01:02:15;;;;;;;3.03;1.88;;;;;;;;;;5109342;28;20028;-41
2022/11/22 06:11:32;;;;;;;1.55;0.80;;;;;;;;;;5099488;28;20047;-39
2022/11/22 06:14:01;;;;;;;1.35;0.80;;;;;;;;;;5113544;28;20498;-39
2022/11/22 06:16:27;;;;;;;1.90;0.88;;;;;;;;;;5113553;28;20500;-39
2022/11/22 06:18:53;;;;;;;2.00;0.90;;;;;;;;;;5113551;28;20024;-39
2022/11/22 06:21:23;;;;;;;1.88;0.75;;;;;;;;;;5113399;28;20046;-39
2022/11/22 06:23:50;;;;;;;1.45;0.70;;;;;;;;;;5103603;28;20055;-39
2022/11/22 06:26:17;;;;;;;1.40;1.10;;;;;;;;;;5092741;28;20017;-39
2022/11/22 06:28:44;;;;;;;1.38;1.10;;;;;;;;;;5098777;28;20055;-39
2022/11/22 06:31:12;;;;;;;1.90;1.30;;;;;;;;;;5112705;28;20039;-39
2022/11/22 06:33:39;;;;;;;2.05;1.00;;;;;;;;;;5109921;28;20027;-39
2022/11/22 06:36:13;;;;;;;1.35;1.10;;;;;;;;;;5112253;27;20016;-39
2022/11/22 06:38:40;;;;;;;2.67;1.63;;;;;;;;;;5112767;28;20038;-39
2022/11/22 06:41:07;;;;;;;3.35;1.83;;;;;;;;;;5098154;28;20107;-39
2022/11/22 06:43:33;;;;;;;4.20;1.70;;;;;;;;;;5092743;28;20449;-39
2022/11/22 06:46:00;;;;;;;2.67;1.38;;;;;;;;;;5101774;28;20031;-39
2022/11/22 06:48:26;;;;;;;3.28;1.50;;;;;;;;;;5113613;28;20020;-38
2022/11/22 06:50:57;;;;;;;2.60;1.23;;;;;;;;;;5113139;28;20032;-39
2022/11/22 06:53:23;;;;;;;2.58;1.58;;;;;;;;;;5113552;28;20437;-39
2022/11/22 06:55:49;;;;;;;2.65;1.25;;;;;;;;;;5113564;28;20107;-39
2022/11/22 06:58:15;;;;;;;3.78;1.67;;;;;;;;;;5113244;28;20023;-39
2022/11/22 07:00:41;;;;;;;2.45;1.40;;;;;;;;;;5112903;28;20024;-39
2022/11/22 07:03:07;;;;;;;4.57;1.50;;;;;;;;;;5113018;28;20424;-39
2022/11/22 07:05:33;;;;;;;2.22;0.90;;;;;;;;;;5113522;28;20020;-39
2022/11/22 07:07:59;;;;;;;2.00;1.00;;;;;;;;;;5112364;28;20039;-39
2022/11/22 07:10:25;;;;;;;2.58;1.27;;;;;;;;;;5111521;28;20040;-39
2022/11/22 07:12:51;;;;;;;2.83;0.90;;;;;;;;;;5112988;28;20055;-39
2022/11/22 07:15:17;;;;;;;2.17;1.65;;;;;;;;;;5112659;28;20020;-39
2022/11/22 07:17:43;;;;;;;2.10;1.33;;;;;;;;;;5113168;28;20034;-39
2022/11/22 07:20:09;;;;;;;2.88;1.33;;;;;;;;;;5094272;28;20036;-39
2022/11/22 07:22:35;;;;;;;1.65;1.27;;;;;;;;;;5100891;28;20035;-39
2022/11/22 07:25:01;;;;;;;1.60;1.35;;;;;;;;;;5111597;28;20024;-39
2022/11/22 07:27:27;;;;;;;1.42;1.20;;;;;;;;;;5112772;28;20047;-39
2022/11/22 07:29:53;;;;;;;1.20;1.05;;;;;;;;;;5103343;28;20096;-39
2022/11/22 07:32:19;;;;;;;2.00;1.05;;;;;;;;;;5105271;28;20028;-39
2022/11/22 07:34:45;;;;;;;2.00;1.17;;;;;;;;;;5111386;28;20024;-39
2022/11/22 07:37:11;;;;;;;3.30;1.38;;;;;;;;;;5098204;28;20035;-39
2022/11/22 07:39:37;;;;;;;3.20;1.10;;;;;;;;;;5092280;28;20020;-39
2022/11/22 07:42:03;;;;;;;2.15;1.05;;;;;;;;;;5096591;28;20028;-39
2022/11/22 07:44:29;;;;;;;3.00;1.10;;;;;;;;;;5099308;28;20020;-39
2022/11/22 07:46:55;;;;;;;4.22;1.63;;;;;;;;;;5110479;28;20459;-39
2022/11/22 07:49:21;;;;;;;2.50;1.90;;;;;;;;;;5108980;28;20073;-39
2022/11/22 07:51:47;;;;;;;2.63;1.75;;;;;;;;;;5102050;28;20023;-39
2022/11/22 07:54:13;;;;;;;3.03;1.70;;;;;;;;;;5082372;28;20644;-39
2022/11/22 07:56:40;;;;;;;2.25;1.60;;;;;;;;;;5084626;28;20652;-39
2022/11/22 07:59:06;;;;;;;2.08;1.50;;;;;;;;;;5103653;28;20073;-39
2022/11/22 08:01:32;;;;;;;3.08;1.35;;;;;;;;;;5102970;28;20108;-39
2022/11/22 08:03:58;;;;;;;1.92;1.45;;;;;;;;;;5103352;28;20126;-39
2022/11/22 08:06:24;;;;;;;2.58;1.33;;;;;;;;;;5104655;28;20032;-39
2022/11/22 08:08:50;;;;;;;2.80;1.40;;;;;;;;;;5102965;27;20031;-39
2022/11/22 08:11:16;;;;;;;3.13;2.03;;;;;;;;;;5098719;28;20624;-39
2022/11/22 08:13:43;;;;;;;3.97;2.13;;;;;;;;;;5071755;28;20037;-39
2022/11/22 08:16:11;;;;;;;4.70;2.20;;;;;;;;;;5066002;28;20497;-39
2022/11/22 08:18:37;;;;;;;4.65;2.50;;;;;;;;;;5063716;28;20063;-39
2022/11/22 08:21:03;;;;;;;6.55;3.63;;;;;;;;;;5078650;28;20040;-39
2022/11/22 08:23:30;;;;;;;7.13;4.57;;;;;;;;;;5078977;28;20036;-39
2022/11/22 08:25:57;;;;;;;9.02;5.30;;;;;;;;;;5077317;28;20119;-39
2022/11/22 08:28:23;;;;;;;8.32;4.47;;;;;;;;;;5073335;28;20530;-39
2022/11/22 08:30:49;;;;;;;7.30;3.85;;;;;;;;;;5078329;28;20052;-39
2022/11/22 08:33:15;;;;;;;5.40;3.40;;;;;;;;;;5080016;28;20024;-39
2022/11/22 08:35:42;;;;;;;5.30;3.13;;;;;;;;;;5088344;28;20039;-39
2022/11/22 08:38:08;;;;;;;4.47;2.85;;;;;;;;;;5088353;28;20016;-39
2022/11/22 08:40:34;;;;;;;3.78;2.80;;;;;;;;;;5083375;28;20082;-39
2022/11/22 08:43:00;;;;;;;7.47;4.30;;;;;;;;;;5092081;28;20020;-39
2022/11/22 08:45:26;;;;;;;5.90;3.75;;;;;;;;;;5088973;28;20472;-39
2022/11/22 08:47:52;;;;;;;5.35;3.40;;;;;;;;;;5088412;28;20030;-39
2022/11/22 08:50:18;;;;;;;5.72;3.22;;;;;;;;;;5084673;28;20059;-39
2022/11/22 08:52:44;;;;;;;6.45;3.78;;;;;;;;;;5076156;28;20024;-40
2022/11/22 08:55:10;;;;;;;6.18;3.70;;;;;;;;;;5080299;28;20056;-39
2022/11/22 08:57:36;;;;;;;6.40;3.67;;;;;;;;;;5079328;28;20128;-39
2022/11/22 09:00:03;;;;;;;5.05;3.50;;;;;;;;;;5076706;28;20044;-39
2022/11/22 09:02:29;;;;;;;6.45;4.20;;;;;;;;;;5079682;28;20020;-39
2022/11/22 09:04:55;;;;;;;6.10;3.55;;;;;;;;;;5082384;28;21310;-39
2022/11/22 09:07:21;;;;;;;6.78;3.75;;;;;;;;;;5081159;28;20039;-39
2022/11/22 09:09:47;;;;;;;5.93;3.45;;;;;;;;;;5078636;28;20040;-39
2022/11/22 09:12:13;;;;;;;6.22;3.92;;;;;;;;;;5085692;28;20087;-39
2022/11/22 09:14:39;;;;;;;4.80;2.80;;;;;;;;;;5088415;28;20032;-39
2022/11/22 09:17:05;;;;;;;5.32;2.88;;;;;;;;;;5095057;28;20150;-39
2022/11/22 09:19:31;;;;;;;4.28;2.65;;;;;;;;;;5092744;28;20499;-39
2022/11/22 09:21:57;;;;;;;4.38;2.65;;;;;;;;;;5088874;28;20101;-39
2022/11/22 09:24:23;;;;;;;4.68;2.92;;;;;;;;;;5091387;28;20067;-39
2022/11/22 09:26:49;;;;;;;3.58;2.28;;;;;;;;;;5089517;28;20024;-39
2022/11/22 09:29:15;;;;;;;4.25;2.60;;;;;;;;;;5092061;28;20062;-39
2022/11/22 09:31:41;;;;;;;4.13;2.50;;;;;;;;;;5086088;28;20107;-39
2022/11/22 09:34:07;;;;;;;3.95;2.63;;;;;;;;;;5088386;28;20035;-39
2022/11/22 09:36:33;;;;;;;4.18;2.40;;;;;;;;;;5087188;28;20026;-39
2022/11/22 09:38:59;;;;;;;3.03;2.20;;;;;;;;;;5086130;28;20028;-39
2022/11/22 09:41:31;;;;;;;3.88;2.28;;;;;;;;;;5083973;28;20034;-39
2022/11/22 09:44:04;;;;;;;4.38;2.65;;;;;;;;;;5085791;28;20028;-39
2022/11/22 09:46:48;;;;;;;3.47;2.00;;;;;;;;;;5086259;28;20450;-39
2022/11/22 09:49:14;;;;;;;;;;;;;;;;;;5095575;28;20114;-39
2022/11/22 09:51:43;;;;;;;3.58;2.20;;;;;;;;;;5085185;28;20474;-39
2022/11/22 09:54:19;;;;;;;3.33;1.85;;;;;;;;;;5082391;28;20773;-39
2022/11/22 09:56:45;;;;;;;3.38;1.80;;;;;;;;;;5088187;28;20391;-39
2022/11/22 09:59:14;;;;;;;3.53;2.10;;;;;;;;;;5088326;28;20565;-39
2022/11/22 10:01:43;;;;;;;3.60;1.65;;;;;;;;;;5085609;28;20040;-39
2022/11/22 10:04:35;;;;;;;1.65;1.38;;;;;;;;;;5067974;28;20482;-39
2022/11/22 10:07:05;;;;;;;2.05;1.42;;;;;;;;;;5078326;28;20063;-39
2022/11/22 10:09:46;;;;;;;3.53;1.77;;;;;;;;;;5091912;28;20568;-39
2022/11/22 10:12:30;;;;;;;4.15;1.70;;;;;;;;;;5091760;28;20027;-39
2022/11/22 10:14:56;;;;;;;;;;;;;;;;;;5102386;28;20091;-39
2022/11/22 10:17:41;;;;;;;3.58;1.67;;;;;;;;;;5102877;28;19904;-39
2022/11/22 10:20:07;;;;;;;3.22;1.50;;;;;;;;;;5101086;28;20048;-39
2022/11/22 10:22:34;;;;;;;2.47;1.27;;;;;;;;;;5101760;28;20024;-39
2022/11/22 10:25:02;;;;;;;2.65;1.55;;;;;;;;;;5102199;28;20541;-39
2022/11/22 10:27:30;;;;;;;3.92;1.73;;;;;;;;;;5098793;28;20699;-39
2022/11/22 10:30:02;;;;;;;3.13;1.50;;;;;;;;;;5100291;28;20110;-39
2022/11/22 10:32:44;;;;;;;2.80;1.65;;;;;;;;;;5101838;28;20027;-39
2022/11/22 10:35:29;;;;;;;2.13;1.38;;;;;;;;;;5102350;28;20362;-39
2022/11/22 10:37:58;;;;;;;2.38;1.38;;;;;;;;;;5099871;28;20088;-39
2022/11/22 10:40:43;;;;;;;1.70;1.38;;;;;;;;;;5099990;28;20028;-39
2022/11/22 10:43:28;;;;;;;2.05;1.50;;;;;;;;;;5101972;28;20039;-39
2022/11/22 10:46:00;;;;;;;2.13;1.52;;;;;;;;;;5099841;28;20028;-39
2022/11/22 10:48:29;;;;;;;2.40;1.45;;;;;;;;;;5095997;28;20031;-39
2022/11/22 10:51:04;;;;;;;3.08;1.63;;;;;;;;;;5099249;28;20034;-39
2022/11/22 10:53:36;;;;;;;3.00;1.40;;;;;;;;;;5102886;28;20065;-39
2022/11/22 10:56:10;;;;;;;2.33;1.48;;;;;;;;;;5100020;28;20059;-39
2022/11/22 10:58:55;;;;;;;2.58;1.30;;;;;;;;;;5103511;28;20027;-39
2022/11/22 11:01:40;;;;;;;2.42;1.52;;;;;;;;;;5090119;28;20032;-39
2022/11/22 11:04:05;;;;;;;;;;;;;;;;;;5103096;28;20533;-39
2022/11/22 11:06:35;;;;;;;2.97;1.30;;;;;;;;;;5102785;28;19939;-39
2022/11/22 11:09:12;;;;;;;1.52;1.02;;;;;;;;;;5104495;28;20035;-39
2022/11/22 11:11:39;;;;;;;3.45;1.25;;;;;;;;;;5100240;28;20034;-39
2022/11/22 11:14:08;;;;;;;1.85;0.85;;;;;;;;;;5102300;28;20028;-39
2022/11/22 11:16:35;;;;;;;1.25;0.70;;;;;;;;;;5100681;28;20059;-39
2022/11/22 11:19:10;;;;;;;0.82;0.70;;;;;;;;;;5101941;28;20118;-39
2022/11/22 11:21:36;;;;;;;1.85;0.90;;;;;;;;;;5098025;28;20032;-39
2022/11/22 11:24:03;;;;;;;1.67;0.82;;;;;;;;;;5102166;28;20036;-39
2022/11/22 11:26:31;;;;;;;1.65;0.77;;;;;;;;;;5100949;28;20080;-39
2022/11/22 11:29:18;;;;;;;2.20;0.85;;;;;;;;;;5103651;28;20092;-39
2022/11/22 11:31:44;;;;;;;2.22;0.75;;;;;;;;;;5100205;28;20020;-39
2022/11/22 11:34:23;;;;;;;2.45;0.60;;;;;;;;;;5090010;28;20034;-39
2022/11/22 11:36:50;;;;;;;0.93;0.60;;;;;;;;;;5092942;28;20043;-39
2022/11/22 11:39:20;;;;;;;1.83;0.77;;;;;;;;;;5103772;28;20023;-39
2022/11/22 11:41:46;;;;;;;3.38;0.90;;;;;;;;;;5094112;28;20028;-39
2022/11/22 11:44:30;;;;;;;0.50;0.50;;;;;;;;;;5099482;28;20034;-39
2022/11/22 11:46:57;;;;;;;0.57;0.50;;;;;;;;;;5110777;28;20028;-39
2022/11/22 11:49:27;;;;;;;0.40;0.40;;;;;;;;;;5110630;28;20034;-39
2022/11/22 11:51:53;;;;;;;0.22;0.22;;;;;;;;;;5110488;28;20513;-39
2022/11/22 11:54:25;;;;;;;1.15;0.43;;;;;;;;;;5109862;28;20019;-39
2022/11/22 11:56:51;;;;;;;0.68;0.52;;;;;;;;;;5109792;28;20046;-39
2022/11/22 11:59:18;;;;;;;0.82;0.43;;;;;;;;;;5109716;28;20023;-39
2022/11/22 12:01:54;;;;;;;0.70;0.35;;;;;;;;;;5093564;28;20020;-39
2022/11/22 12:04:22;;;;;;;1.10;0.63;;;;;;;;;;5097181;28;20126;-39
2022/11/22 12:06:55;;;;;;;0.68;0.38;;;;;;;;;;5083710;28;20471;-39
2022/11/22 12:09:28;;;;;;;1.38;0.55;;;;;;;;;;5093469;28;20032;-39
2022/11/22 12:11:56;;;;;;;1.13;0.60;;;;;;;;;;5109611;28;20066;-39
2022/11/22 12:14:25;;;;;;;1.58;0.40;;;;;;;;;;5097541;28;20103;-39
2022/11/22 12:16:52;;;;;;;0.93;0.40;;;;;;;;;;5094111;28;20043;-39
2022/11/22 12:19:18;;;;;;;1.02;0.43;;;;;;;;;;5103509;28;20487;-39
2022/11/22 12:21:47;;;;;;;0.47;0.47;;;;;;;;;;5110135;28;20024;-39
2022/11/22 12:24:25;;;;;;;0.75;0.50;;;;;;;;;;5110044;28;20032;-39
2022/11/22 12:26:51;;;;;;;2.10;0.60;;;;;;;;;;5096488;28;20035;-39
2022/11/22 12:29:17;;;;;;;1.38;0.50;;;;;;;;;;5094915;28;20032;-39
2022/11/22 12:31:52;;;;;;;0.73;0.52;;;;;;;;;;5109417;28;20031;-39
2022/11/22 12:34:36;;;;;;;0.70;0.60;;;;;;;;;;5109954;28;20391;-39
2022/11/22 12:37:07;;;;;;;1.35;0.70;;;;;;;;;;5109494;28;20843;-39
2022/11/22 12:39:35;;;;;;;2.05;0.90;;;;;;;;;;5109688;28;20019;-39
2022/11/22 12:42:01;;;;;;;1.60;1.05;;;;;;;;;;5100583;28;20417;-39
2022/11/22 12:44:29;;;;;;;3.22;1.27;;;;;;;;;;5088953;28;20030;-39
2022/11/22 12:47:00;;;;;;;2.72;1.35;;;;;;;;;;5089579;28;20032;-39
2022/11/22 12:49:37;;;;;;;1.88;1.20;;;;;;;;;;5089551;28;20379;-39
2022/11/22 12:52:09;;;;;;;3.42;1.45;;;;;;;;;;5108605;28;20039;-39
2022/11/22 12:54:42;;;;;;;3.30;1.77;;;;;;;;;;5109887;28;20024;-39
2022/11/22 12:57:20;;;;;;;2.28;1.25;;;;;;;;;;5110388;28;20027;-39
2022/11/22 12:59:52;;;;;;;1.80;1.13;;;;;;;;;;5109016;28;20027;-39
2022/11/22 13:02:24;;;;;;;2.10;1.10;;;;;;;;;;5106174;28;20372;-39
2022/11/22 13:04:54;;;;;;;1.98;0.90;;;;;;;;;;5108052;28;20057;-39
2022/11/22 13:07:19;;;;;;;2.25;0.93;;;;;;;;;;5109771;28;20402;-39
2022/11/22 13:09:51;;;;;;;1.67;0.90;;;;;;;;;;5109735;28;20031;-39
2022/11/22 13:12:23;;;;;;;2.78;1.40;;;;;;;;;;5109615;28;20030;-39
2022/11/22 13:14:54;;;;;;;2.08;1.20;;;;;;;;;;5102707;28;20030;-39
2022/11/22 13:17:21;;;;;;;1.27;0.70;;;;;;;;;;5107607;28;20102;-39
2022/11/22 13:19:56;;;;;;;2.15;0.85;;;;;;;;;;5109532;28;20490;-39
2022/11/22 13:22:31;;;;;;;1.77;1.00;;;;;;;;;;5109665;28;20020;-39
2022/11/22 13:25:07;;;;;;;1.67;0.88;;;;;;;;;;5107103;28;20035;-39
2022/11/22 13:27:44;;;;;;;2.35;1.02;;;;;;;;;;5103333;28;20020;-39
2022/11/22 13:30:20;;;;;;;1.52;0.73;;;;;;;;;;5099151;28;20110;-39
2022/11/22 13:32:50;;;;;;;0.80;0.73;;;;;;;;;;5092859;28;20032;-39
2022/11/22 13:35:16;;;;;;;1.75;0.90;;;;;;;;;;5093572;28;20522;-39
2022/11/22 13:37:44;;;;;;;0.85;0.70;;;;;;;;;;5102586;28;20027;-39
2022/11/22 13:40:13;;;;;;;1.58;0.88;;;;;;;;;;5095228;28;20442;-39
2022/11/22 13:42:39;;;;;;;2.28;0.80;;;;;;;;;;5099412;28;20023;-39
2022/11/22 13:45:12;;;;;;;2.15;0.85;;;;;;;;;;5091939;28;20028;-39
2022/11/22 13:47:39;;;;;;;1.77;1.10;;;;;;;;;;5091776;28;20020;-39
2022/11/22 13:50:40;;;;;;;3.25;1.38;;;;;;;;;;5092750;28;20024;-39
2022/11/22 13:53:18;;;;;;;2.75;1.63;;;;;;;;;;5021128;28;20030;-39
2022/11/22 13:55:45;;;;;;;3.17;2.03;;;;;;;;;;5091449;28;20019;-39
2022/11/22 13:58:34;;;;;;;2.33;1.60;;;;;;;;;;5102308;28;20475;-39
2022/11/22 14:01:00;;;;;;;3.00;1.40;;;;;;;;;;5050033;28;20044;-39
2022/11/22 14:03:41;;;;;;;2.30;1.38;;;;;;;;;;5090749;28;20059;-39
2022/11/22 14:06:14;;;;;;;2.53;1.00;;;;;;;;;;5094447;28;20034;-39
2022/11/22 14:08:41;;;;;;;3.03;1.40;;;;;;;;;;5092486;28;20409;-39
2022/11/22 14:11:17;;;;;;;2.53;1.40;;;;;;;;;;5091760;28;20060;-39
2022/11/22 14:13:59;;;;;;;1.40;0.93;;;;;;;;;;5092919;28;20038;-39
2022/11/22 14:16:38;;;;;;;2.65;1.45;;;;;;;;;;5092314;28;20020;-39
2022/11/22 14:19:26;;;;;;;1.70;1.10;;;;;;;;;;5105930;28;20386;-39
2022/11/22 14:22:08;;;;;;;1.27;0.93;;;;;;;;;;5103708;28;20483;-39
2022/11/22 14:24:40;;;;;;;2.03;1.20;;;;;;;;;;5110326;28;20107;-39
2022/11/22 14:27:17;;;;;;;1.40;0.90;;;;;;;;;;5101842;28;20024;-39
2022/11/22 14:30:03;;;;;;;1.30;0.98;;;;;;;;;;5096514;28;20035;-39
2022/11/22 14:32:55;;;;;;;1.83;1.30;;;;;;;;;;5107546;28;20038;-39
2022/11/22 14:35:23;;;;;;;2.88;1.20;;;;;;;;;;5107607;28;20032;-39
2022/11/22 14:37:52;;;;;;;2.30;1.30;;;;;;;;;;5112306;28;20150;-39
2022/11/22 14:40:30;;;;;;;3.85;1.80;;;;;;;;;;5105014;28;20479;-39
2022/11/22 14:42:58;;;;;;;3.72;1.67;;;;;;;;;;5106167;28;20062;-39
2022/11/22 14:45:45;;;;;;;2.97;1.77;;;;;;;;;;5106194;28;20024;-39
2022/11/22 14:48:16;;;;;;;4.40;1.80;;;;;;;;;;5093893;28;20495;-39
2022/11/22 14:51:03;;;;;;;4.68;2.10;;;;;;;;;;5097183;28;20039;-39
2022/11/22 14:54:04;;;;;;;3.90;1.60;;;;;;;;;;5084045;28;20040;-39
2022/11/22 14:56:32;;;;;;;3.28;1.85;;;;;;;;;;4978466;28;20078;-39
2022/11/22 14:59:00;;;;;;;3.65;1.75;;;;;;;;;;5068095;28;20127;-39
2022/11/22 15:01:35;;;;;;;4.80;1.75;;;;;;;;;;5107867;27;20360;-39
2022/11/22 15:04:16;;;;;;;3.13;1.60;;;;;;;;;;5109163;28;20633;-39
2022/11/22 15:07:07;;;;;;;3.42;1.85;;;;;;;;;;5106461;28;20498;-39
2022/11/22 15:09:33;;;;;;;3.53;1.85;;;;;;;;;;5100078;28;20046;-39
2022/11/22 15:12:18;;;;;;;2.95;1.38;;;;;;;;;;5106936;28;20031;-39
2022/11/22 15:15:02;;;;;;;2.95;1.50;;;;;;;;;;5108283;28;20100;-39
2022/11/22 15:17:28;;;;;;;;;;;;;;;;;;5106096;28;20103;-39
2022/11/22 15:19:55;;;;;;;2.30;1.45;;;;;;;;;;5109661;28;20453;-39
2022/11/22 15:22:25;;;;;;;2.33;1.30;;;;;;;;;;5108606;28;20072;-39
2022/11/22 15:25:02;;;;;;;3.08;1.42;;;;;;;;;;5091540;28;20398;-38
2022/11/22 15:27:31;;;;;;;3.35;1.55;;;;;;;;;;5104548;28;20502;-38
2022/11/22 15:30:16;;;;;;;3.10;1.40;;;;;;;;;;5095732;28;20021;-38
2022/11/22 15:32:43;;;;;;;2.95;1.17;;;;;;;;;;5109502;28;20023;-38
2022/11/22 15:35:16;;;;;;;2.53;1.10;;;;;;;;;;5110987;28;20149;-38
2022/11/22 15:37:42;;;;;;;1.73;1.08;;;;;;;;;;5098151;27;20112;-39
2022/11/22 15:40:16;;;;;;;2.30;1.05;;;;;;;;;;5104911;28;20070;-39
2022/11/22 15:42:52;;;;;;;1.52;1.05;;;;;;;;;;5107282;28;20027;-39
2022/11/22 15:45:19;;;;;;;1.40;1.00;;;;;;;;;;5104407;28;20020;-39
2022/11/22 15:47:49;;;;;;;2.65;1.58;;;;;;;;;;5090362;28;20027;-39
2022/11/22 15:50:18;;;;;;;2.40;1.50;;;;;;;;;;5094724;28;20028;-39
2022/11/22 15:52:55;;;;;;;2.45;1.60;;;;;;;;;;5080793;28;20024;-39
2022/11/22 15:55:22;;;;;;;2.97;1.55;;;;;;;;;;5090181;28;20156;-39
2022/11/22 15:57:51;;;;;;;2.88;1.20;;;;;;;;;;5110329;28;20027;-39
2022/11/22 16:00:22;;;;;;;1.45;1.30;;;;;;;;;;5106813;28;20035;-39
2022/11/22 16:02:49;;;;;;;1.88;1.20;;;;;;;;;;5110334;28;20024;-39
2022/11/22 16:05:22;;;;;;;2.72;1.15;;;;;;;;;;5099757;28;20517;-39
2022/11/22 16:07:49;;;;;;;3.30;1.50;;;;;;;;;;5102704;28;20039;-39
2022/11/22 16:10:22;;;;;;;1.67;1.10;;;;;;;;;;5106744;28;20024;-39
2022/11/22 16:12:49;;;;;;;1.92;1.27;;;;;;;;;;5098749;28;20031;-39
2022/11/22 16:15:27;;;;;;;1.85;1.50;;;;;;;;;;5102488;28;20020;-39
2022/11/22 16:18:07;;;;;;;2.75;1.77;;;;;;;;;;5107168;27;20034;-39
2022/11/22 16:20:33;;;;;;;3.75;2.00;;;;;;;;;;5096661;27;20012;-39
2022/11/22 16:23:22;;;;;;;3.88;1.95;;;;;;;;;;5101392;28;20089;-39
2022/11/22 16:25:49;;;;;;;2.53;1.52;;;;;;;;;;5090643;28;20515;-39
2022/11/22 16:28:28;;;;;;;2.15;1.67;;;;;;;;;;5096052;28;20038;-39
2022/11/22 16:30:55;;;;;;;4.45;2.15;;;;;;;;;;5097992;27;20027;-39
2022/11/22 16:33:22;;;;;;;4.03;2.15;;;;;;;;;;5093374;28;20117;-39
2022/11/22 16:35:53;;;;;;;2.70;1.70;;;;;;;;;;5102798;28;20495;-39
2022/11/22 16:38:19;;;;;;;3.60;2.10;;;;;;;;;;5101556;28;20036;-39
2022/11/22 16:40:45;;;;;;;4.32;2.50;;;;;;;;;;5099133;28;20059;-39
2022/11/22 16:43:18;;;;;;;2.58;1.95;;;;;;;;;;5101332;28;20032;-39
2022/11/22 16:45:44;;;;;;;2.55;1.83;;;;;;;;;;5100920;28;20032;-39
2022/11/22 16:48:15;;;;;;;3.70;2.20;;;;;;;;;;5101168;28;20038;-39
2022/11/22 16:50:41;;;;;;;2.88;2.05;;;;;;;;;;5099494;28;20427;-39
2022/11/22 16:53:11;;;;;;;2.83;2.22;;;;;;;;;;5101666;28;20038;-39
2022/11/22 16:55:37;;;;;;;3.60;1.90;;;;;;;;;;5100200;28;20036;-39
2022/11/22 16:58:13;;;;;;;2.92;2.20;;;;;;;;;;5101915;28;20043;-39
2022/11/22 17:00:39;;;;;;;5.07;2.97;;;;;;;;;;5098955;28;20091;-39
2022/11/22 17:03:05;;;;;;;5.32;3.75;;;;;;;;;;5101471;28;20040;-39
2022/11/22 17:05:31;;;;;;;6.38;3.67;;;;;;;;;;5102025;28;20024;-39
2022/11/22 17:07:57;;;;;;;5.15;3.72;;;;;;;;;;5100889;28;20027;-39
2022/11/22 17:10:23;;;;;;;7.72;4.47;;;;;;;;;;5100073;28;20032;-39
2022/11/22 17:12:49;;;;;;;5.25;3.55;;;;;;;;;;5100064;28;20043;-39
2022/11/22 17:15:16;;;;;;;5.55;3.63;;;;;;;;;;5099014;28;20032;-39
2022/11/22 17:17:42;;;;;;;5.97;3.53;;;;;;;;;;5098634;28;20042;-39
2022/11/22 17:20:08;;;;;;;5.78;3.63;;;;;;;;;;5100941;28;20728;-39
2022/11/22 17:22:34;;;;;;;7.10;4.60;;;;;;;;;;5100044;28;20580;-39
2022/11/22 17:25:00;;;;;;;8.38;4.50;;;;;;;;;;5104522;28;20023;-39
2022/11/22 17:27:26;;;;;;;7.28;4.63;;;;;;;;;;5104038;28;20023;-39
2022/11/22 17:29:52;;;;;;;6.82;3.95;;;;;;;;;;5104504;28;20031;-38
2022/11/22 17:32:18;;;;;;;8.10;4.63;;;;;;;;;;5103417;28;20413;-39
2022/11/22 17:34:44;;;;;;;6.45;4.25;;;;;;;;;;5104197;28;20649;-39
2022/11/22 17:37:11;;;;;;;6.68;4.38;;;;;;;;;;5103117;28;20046;-39
2022/11/22 17:39:37;;;;;;;6.80;4.50;;;;;;;;;;5103463;28;20027;-39
2022/11/22 17:42:03;;;;;;;7.47;4.50;;;;;;;;;;5096929;28;20035;-39
2022/11/22 17:44:29;;;;;;;7.45;4.45;;;;;;;;;;5100730;28;20024;-39
2022/11/22 17:46:55;;;;;;;7.90;4.85;;;;;;;;;;5101498;28;20114;-40
2022/11/22 17:49:21;;;;;;;6.72;3.90;;;;;;;;;;5095857;28;20039;-39
2022/11/22 17:51:47;;;;;;;8.25;4.90;;;;;;;;;;5091447;28;20029;-39
2022/11/22 17:54:13;;;;;;;8.13;4.95;;;;;;;;;;5092397;28;20028;-39
2022/11/22 17:56:39;;;;;;;8.75;5.35;;;;;;;;;;5108187;28;20107;-39
2022/11/22 17:59:05;;;;;;;7.82;4.57;;;;;;;;;;5096232;28;20073;-39
2022/11/22 18:01:31;;;;;;;8.65;5.30;;;;;;;;;;5098478;28;20031;-39
2022/11/22 18:03:57;;;;;;;8.82;4.57;;;;;;;;;;5101023;28;20020;-39
2022/11/22 18:06:25;;;;;;;7.40;4.55;;;;;;;;;;5100408;28;20039;-39
2022/11/22 18:08:51;;;;;;;7.18;4.47;;;;;;;;;;5098076;28;20024;-40
2022/11/22 18:11:17;;;;;;;7.82;4.65;;;;;;;;;;5090054;28;20642;-40
2022/11/22 18:13:43;;;;;;;7.65;4.43;;;;;;;;;;5097931;28;20845;-40
2022/11/22 18:16:14;;;;;;;8.07;4.88;;;;;;;;;;5121908;27;20031;-40
2022/11/22 18:18:40;;;;;;;9.10;5.45;;;;;;;;;;5103931;28;20020;-40
2022/11/22 18:21:07;;;;;;;7.72;4.75;;;;;;;;;;5101526;28;20019;-40
2022/11/22 18:23:34;;;;;;;8.73;4.40;;;;;;;;;;5104517;28;20051;-40
2022/11/22 18:26:00;;;;;;;7.13;4.65;;;;;;;;;;5103007;28;20031;-40
2022/11/22 18:28:27;;;;;;;9.93;5.97;;;;;;;;;;5110406;28;20181;-40
2022/11/22 18:30:53;;;;;;;7.55;4.97;;;;;;;;;;5081745;28;20028;-40
2022/11/22 18:33:19;;;;;;;8.50;5.22;;;;;;;;;;5093943;28;20506;-40
2022/11/22 18:35:45;;;;;;;10.27;6.20;;;;;;;;;;5117180;27;20027;-40
2022/11/22 18:38:11;;;;;;;11.13;6.82;;;;;;;;;;5130562;27;20031;-40
2022/11/22 18:40:44;;;;;;;11.30;7.05;;;;;;;;;;5072816;28;20491;-40
2022/11/22 18:43:10;;;;;;;10.85;6.35;;;;;;;;;;5100774;28;20027;-40
2022/11/22 18:45:38;;;;;;;12.85;7.22;;;;;;;;;;5110171;28;20023;-40
2022/11/22 18:48:04;;;;;;;13.38;7.65;;;;;;;;;;5088893;28;20024;-40
2022/11/22 18:50:30;;;;;;;13.70;7.70;;;;;;;;;;5108271;28;20031;-40
2022/11/22 18:52:59;;;;;;;13.55;7.90;;;;;;;;;;5103650;28;20024;-40
2022/11/22 18:55:26;;;;;;;14.80;8.57;;;;;;;;;;5095284;28;20487;-40
2022/11/22 18:57:52;;;;;;;12.93;7.68;;;;;;;;;;5100341;28;20020;-40
2022/11/22 19:00:18;;;;;;;13.07;8.27;;;;;;;;;;5081175;28;20414;-40
2022/11/22 19:02:44;;;;;;;12.48;7.20;;;;;;;;;;5100939;28;20935;-40
2022/11/22 19:05:10;;;;;;;11.40;6.72;;;;;;;;;;5098477;28;20103;-40
2022/11/22 19:07:36;;;;;;;9.25;5.68;;;;;;;;;;5104951;28;20096;-40
2022/11/22 19:10:03;;;;;;;9.95;6.28;;;;;;;;;;5097762;28;20625;-40
2022/11/22 19:12:29;;;;;;;10.23;6.10;;;;;;;;;;5094137;28;20023;-40
2022/11/22 19:14:55;;;;;;;10.25;6.18;;;;;;;;;;5102966;28;20389;-40
2022/11/22 19:17:21;;;;;;;10.75;6.25;;;;;;;;;;5096428;28;20039;-40
2022/11/22 19:19:47;;;;;;;10.43;5.65;;;;;;;;;;5102404;28;20076;-40
2022/11/22 19:22:13;;;;;;;9.18;5.55;;;;;;;;;;5099223;28;20372;-40
2022/11/22 19:24:40;;;;;;;7.78;4.80;;;;;;;;;;5080814;28;20058;-40
2022/11/22 19:27:06;;;;;;;8.95;4.85;;;;;;;;;;5094801;28;20102;-40
2022/11/22 19:29:33;;;;;;;7.95;4.78;;;;;;;;;;5093622;28;20043;-40
2022/11/22 19:31:59;;;;;;;8.98;4.65;;;;;;;;;;5092891;28;20452;-40
2022/11/22 19:34:25;;;;;;;6.72;4.05;;;;;;;;;;5075242;28;20054;-40
2022/11/22 19:36:51;;;;;;;7.63;5.38;;;;;;;;;;5095540;28;20027;-40
2022/11/22 19:39:18;;;;;;;10.18;6.15;;;;;;;;;;5109846;28;20081;-40
2022/11/22 19:41:44;;;;;;;8.73;5.13;;;;;;;;;;5110146;28;20053;-40
2022/11/22 19:44:11;;;;;;;9.13;5.90;;;;;;;;;;5090336;28;20027;-40
2022/11/22 19:46:37;;;;;;;10.50;5.57;;;;;;;;;;5106085;28;20023;-40
2022/11/22 19:49:07;;;;;;;8.55;5.30;;;;;;;;;;5094985;28;20052;-40
2022/11/22 19:51:33;;;;;;;9.60;6.00;;;;;;;;;;5097024;28;20032;-40
2022/11/22 19:54:03;;;;;;;10.68;5.90;;;;;;;;;;5083561;28;20238;-40
2022/11/22 19:56:33;;;;;;;8.38;5.13;;;;;;;;;;5082679;28;20069;-40
2022/11/22 19:59:00;;;;;;;9.68;5.32;;;;;;;;;;5090599;28;20509;-40
2022/11/22 20:01:27;;;;;;;9.75;6.00;;;;;;;;;;5101868;28;20038;-40
2022/11/22 20:03:56;;;;;;;7.25;5.38;;;;;;;;;;5125224;27;20406;-40